sensor_id;sensor_type;location;lat;lon;timestamp;P1;durP1;ratioP1;P2;durP2;ratioP2
11957;SDS011;6039;52.576;13.348;2023-10-08T00:03:24;3.90;;;1.60;;
11957;SDS011;6039;52.576;13.348;2023-10-08T00:08:29;1.60;;;1.10;;
11957;SDS011;6039;52.576;13.348;2023-10-08T00:13:33;3.53;;;1.30;;
11957;SDS011;6039;52.576;13.348;2023-10-08T00:18:42;4.00;;;1.27;;
11957;SDS011;6039;52.576;13.348;2023-10-08T00:23:51;1.87;;;1.20;;
11957;SDS011;6039;52.576;13.348;2023-10-08T00:28:58;4.07;;;1.00;;
11957;SDS011;6039;52.576;13.348;2023-10-08T00:34:09;3.73;;;1.40;;
11957;SDS011;6039;52.576;13.348;2023-10-08T00:39:14;3.13;;;1.27;;
11957;SDS011;6039;52.576;13.348;2023-10-08T00:44:22;3.17;;;1.30;;
11957;SDS011;6039;52.576;13.348;2023-10-08T00:49:32;3.80;;;1.60;;
11957;SDS011;6039;52.576;13.348;2023-10-08T00:54:48;4.80;;;1.30;;
11957;SDS011;6039;52.576;13.348;2023-10-08T00:59:57;3.07;;;1.37;;
11957;SDS011;6039;52.576;13.348;2023-10-08T01:05:06;3.30;;;1.63;;
11957;SDS011;6039;52.576;13.348;2023-10-08T01:10:12;3.73;;;1.90;;
11957;SDS011;6039;52.576;13.348;2023-10-08T01:15:20;3.93;;;2.00;;
11957;SDS011;6039;52.576;13.348;2023-10-08T01:20:31;4.20;;;1.67;;
11957;SDS011;6039;52.576;13.348;2023-10-08T01:25:54;3.33;;;1.53;;
11957;SDS011;6039;52.576;13.348;2023-10-08T01:31:10;4.47;;;1.60;;
11957;SDS011;6039;52.576;13.348;2023-10-08T01:36:15;4.73;;;1.30;;
11957;SDS011;6039;52.576;13.348;2023-10-08T01:41:22;6.83;;;1.50;;
11957;SDS011;6039;52.576;13.348;2023-10-08T01:46:30;2.40;;;1.40;;
11957;SDS011;6039;52.576;13.348;2023-10-08T01:51:34;2.47;;;1.53;;
11957;SDS011;6039;52.576;13.348;2023-10-08T01:56:49;5.90;;;1.80;;
11957;SDS011;6039;52.576;13.348;2023-10-08T02:01:53;5.80;;;1.80;;
11957;SDS011;6039;52.576;13.348;2023-10-08T02:06:57;4.20;;;1.27;;
11957;SDS011;6039;52.576;13.348;2023-10-08T02:12:06;3.17;;;1.73;;
11957;SDS011;6039;52.576;13.348;2023-10-08T02:17:10;5.30;;;1.80;;
11957;SDS011;6039;52.576;13.348;2023-10-08T02:22:14;4.37;;;2.00;;
11957;SDS011;6039;52.576;13.348;2023-10-08T02:27:22;5.60;;;2.40;;
11957;SDS011;6039;52.576;13.348;2023-10-08T02:32:27;5.17;;;2.20;;
11957;SDS011;6039;52.576;13.348;2023-10-08T02:37:32;3.40;;;2.00;;
11957;SDS011;6039;52.576;13.348;2023-10-08T02:42:39;7.00;;;2.67;;
11957;SDS011;6039;52.576;13.348;2023-10-08T02:47:44;6.10;;;2.73;;
11957;SDS011;6039;52.576;13.348;2023-10-08T02:52:48;7.00;;;3.00;;
11957;SDS011;6039;52.576;13.348;2023-10-08T02:57:55;5.60;;;2.70;;
11957;SDS011;6039;52.576;13.348;2023-10-08T03:02:59;6.03;;;2.53;;
11957;SDS011;6039;52.576;13.348;2023-10-08T03:08:10;8.10;;;3.23;;
11957;SDS011;6039;52.576;13.348;2023-10-08T03:13:24;4.57;;;2.40;;
11957;SDS011;6039;52.576;13.348;2023-10-08T03:18:29;8.00;;;2.67;;
11957;SDS011;6039;52.576;13.348;2023-10-08T03:23:36;5.43;;;2.77;;
11957;SDS011;6039;52.576;13.348;2023-10-08T03:28:50;3.57;;;2.57;;
11957;SDS011;6039;52.576;13.348;2023-10-08T03:33:57;7.23;;;2.93;;
11957;SDS011;6039;52.576;13.348;2023-10-08T03:39:01;5.47;;;2.67;;
11957;SDS011;6039;52.576;13.348;2023-10-08T03:44:16;6.17;;;2.47;;
11957;SDS011;6039;52.576;13.348;2023-10-08T03:49:20;4.13;;;2.20;;
11957;SDS011;6039;52.576;13.348;2023-10-08T03:54:31;8.83;;;2.53;;
11957;SDS011;6039;52.576;13.348;2023-10-08T03:59:46;6.20;;;2.50;;
11957;SDS011;6039;52.576;13.348;2023-10-08T04:04:55;5.77;;;2.43;;
11957;SDS011;6039;52.576;13.348;2023-10-08T04:10:00;10.87;;;2.57;;
11957;SDS011;6039;52.576;13.348;2023-10-08T04:15:31;5.37;;;2.40;;
11957;SDS011;6039;52.576;13.348;2023-10-08T04:20:40;3.07;;;2.20;;
11957;SDS011;6039;52.576;13.348;2023-10-08T04:26:00;5.03;;;2.33;;
11957;SDS011;6039;52.576;13.348;2023-10-08T04:31:09;7.93;;;2.50;;
11957;SDS011;6039;52.576;13.348;2023-10-08T04:36:17;4.43;;;2.30;;
11957;SDS011;6039;52.576;13.348;2023-10-08T04:41:21;4.27;;;2.17;;
11957;SDS011;6039;52.576;13.348;2023-10-08T04:46:30;4.07;;;2.40;;
11957;SDS011;6039;52.576;13.348;2023-10-08T04:51:46;5.10;;;2.47;;
11957;SDS011;6039;52.576;13.348;2023-10-08T04:56:52;8.17;;;2.70;;
11957;SDS011;6039;52.576;13.348;2023-10-08T05:02:01;3.47;;;2.40;;
11957;SDS011;6039;52.576;13.348;2023-10-08T05:07:19;6.30;;;2.50;;
11957;SDS011;6039;52.576;13.348;2023-10-08T05:12:40;6.23;;;2.80;;
11957;SDS011;6039;52.576;13.348;2023-10-08T05:17:50;5.60;;;2.30;;
11957;SDS011;6039;52.576;13.348;2023-10-08T05:23:13;5.67;;;2.40;;
11957;SDS011;6039;52.576;13.348;2023-10-08T05:28:44;4.40;;;2.40;;
11957;SDS011;6039;52.576;13.348;2023-10-08T05:34:03;5.83;;;2.13;;
11957;SDS011;6039;52.576;13.348;2023-10-08T05:39:32;7.53;;;2.60;;
11957;SDS011;6039;52.576;13.348;2023-10-08T05:44:47;6.13;;;2.37;;
11957;SDS011;6039;52.576;13.348;2023-10-08T05:50:16;8.90;;;3.17;;
11957;SDS011;6039;52.576;13.348;2023-10-08T05:55:39;6.60;;;2.77;;
11957;SDS011;6039;52.576;13.348;2023-10-08T06:00:47;5.30;;;2.47;;
11957;SDS011;6039;52.576;13.348;2023-10-08T06:06:11;6.83;;;2.33;;
11957;SDS011;6039;52.576;13.348;2023-10-08T06:11:47;3.83;;;2.43;;
11957;SDS011;6039;52.576;13.348;2023-10-08T06:17:10;6.63;;;2.80;;
11957;SDS011;6039;52.576;13.348;2023-10-08T06:22:26;3.63;;;2.47;;
11957;SDS011;6039;52.576;13.348;2023-10-08T06:27:30;5.13;;;2.40;;
11957;SDS011;6039;52.576;13.348;2023-10-08T06:32:34;3.53;;;2.30;;
11957;SDS011;6039;52.576;13.348;2023-10-08T06:37:41;5.53;;;2.90;;
11957;SDS011;6039;52.576;13.348;2023-10-08T06:42:45;5.23;;;2.17;;
11957;SDS011;6039;52.576;13.348;2023-10-08T06:47:51;3.50;;;2.13;;
11957;SDS011;6039;52.576;13.348;2023-10-08T06:52:59;4.00;;;2.63;;
11957;SDS011;6039;52.576;13.348;2023-10-08T06:58:07;4.97;;;2.43;;
11957;SDS011;6039;52.576;13.348;2023-10-08T07:03:12;5.90;;;1.90;;
11957;SDS011;6039;52.576;13.348;2023-10-08T07:08:20;4.67;;;1.70;;
11957;SDS011;6039;52.576;13.348;2023-10-08T07:13:24;4.97;;;2.10;;
11957;SDS011;6039;52.576;13.348;2023-10-08T07:18:29;4.23;;;1.80;;
11957;SDS011;6039;52.576;13.348;2023-10-08T07:23:37;3.90;;;1.60;;
11957;SDS011;6039;52.576;13.348;2023-10-08T07:28:56;4.00;;;1.37;;
11957;SDS011;6039;52.576;13.348;2023-10-08T07:34:00;2.70;;;1.40;;
11957;SDS011;6039;52.576;13.348;2023-10-08T07:39:18;3.23;;;1.30;;
11957;SDS011;6039;52.576;13.348;2023-10-08T07:44:26;4.37;;;1.40;;
11957;SDS011;6039;52.576;13.348;2023-10-08T07:49:31;4.73;;;1.60;;
11957;SDS011;6039;52.576;13.348;2023-10-08T07:54:38;4.73;;;1.37;;
11957;SDS011;6039;52.576;13.348;2023-10-08T07:59:42;1.77;;;1.07;;
11957;SDS011;6039;52.576;13.348;2023-10-08T08:04:49;2.70;;;1.20;;
11957;SDS011;6039;52.576;13.348;2023-10-08T08:09:56;2.87;;;1.20;;
11957;SDS011;6039;52.576;13.348;2023-10-08T08:15:01;4.33;;;1.20;;
11957;SDS011;6039;52.576;13.348;2023-10-08T08:20:14;1.33;;;1.13;;
11957;SDS011;6039;52.576;13.348;2023-10-08T08:25:25;1.50;;;1.03;;
11957;SDS011;6039;52.576;13.348;2023-10-08T08:30:34;1.97;;;1.00;;
11957;SDS011;6039;52.576;13.348;2023-10-08T08:35:39;0.90;;;0.70;;
11957;SDS011;6039;52.576;13.348;2023-10-08T08:40:47;1.47;;;0.90;;
11957;SDS011;6039;52.576;13.348;2023-10-08T08:45:51;2.73;;;1.00;;
11957;SDS011;6039;52.576;13.348;2023-10-08T08:50:56;1.23;;;0.70;;
11957;SDS011;6039;52.576;13.348;2023-10-08T08:56:03;1.67;;;1.00;;
11957;SDS011;6039;52.576;13.348;2023-10-08T09:01:11;1.80;;;0.90;;
11957;SDS011;6039;52.576;13.348;2023-10-08T09:06:15;1.50;;;0.90;;
11957;SDS011;6039;52.576;13.348;2023-10-08T09:11:22;1.63;;;0.80;;
11957;SDS011;6039;52.576;13.348;2023-10-08T09:16:26;2.07;;;0.70;;
11957;SDS011;6039;52.576;13.348;2023-10-08T09:21:30;0.93;;;0.73;;
11957;SDS011;6039;52.576;13.348;2023-10-08T09:26:37;0.67;;;0.60;;
11957;SDS011;6039;52.576;13.348;2023-10-08T09:31:41;1.20;;;0.90;;
11957;SDS011;6039;52.576;13.348;2023-10-08T09:36:48;0.73;;;0.73;;
11957;SDS011;6039;52.576;13.348;2023-10-08T09:41:56;2.10;;;1.00;;
11957;SDS011;6039;52.576;13.348;2023-10-08T09:47:02;3.40;;;1.03;;
11957;SDS011;6039;52.576;13.348;2023-10-08T09:52:07;2.23;;;0.90;;
11957;SDS011;6039;52.576;13.348;2023-10-08T09:57:15;1.93;;;1.10;;
11957;SDS011;6039;52.576;13.348;2023-10-08T10:02:20;1.90;;;0.90;;
11957;SDS011;6039;52.576;13.348;2023-10-08T10:07:27;0.87;;;0.70;;
11957;SDS011;6039;52.576;13.348;2023-10-08T10:12:33;1.50;;;0.93;;
11957;SDS011;6039;52.576;13.348;2023-10-08T10:17:40;1.13;;;0.70;;
11957;SDS011;6039;52.576;13.348;2023-10-08T10:22:44;1.60;;;0.97;;
11957;SDS011;6039;52.576;13.348;2023-10-08T10:33:34;1.10;;;0.87;;
11957;SDS011;6039;52.576;13.348;2023-10-08T10:38:40;1.60;;;0.80;;
11957;SDS011;6039;52.576;13.348;2023-10-08T10:43:44;1.20;;;0.90;;
11957;SDS011;6039;52.576;13.348;2023-10-08T10:48:55;1.03;;;0.87;;
11957;SDS011;6039;52.576;13.348;2023-10-08T10:54:18;1.37;;;0.70;;
11957;SDS011;6039;52.576;13.348;2023-10-08T10:59:23;2.37;;;0.70;;
11957;SDS011;6039;52.576;13.348;2023-10-08T11:04:39;1.10;;;0.73;;
11957;SDS011;6039;52.576;13.348;2023-10-08T11:09:48;1.60;;;0.90;;
11957;SDS011;6039;52.576;13.348;2023-10-08T11:14:55;2.40;;;0.90;;
11957;SDS011;6039;52.576;13.348;2023-10-08T11:20:22;0.90;;;0.80;;
11957;SDS011;6039;52.576;13.348;2023-10-08T11:25:26;1.20;;;0.60;;
11957;SDS011;6039;52.576;13.348;2023-10-08T11:30:31;3.77;;;2.43;;
11957;SDS011;6039;52.576;13.348;2023-10-08T11:35:37;1.40;;;0.90;;
11957;SDS011;6039;52.576;13.348;2023-10-08T11:40:52;0.70;;;0.60;;
11957;SDS011;6039;52.576;13.348;2023-10-08T11:45:58;0.77;;;0.60;;
11957;SDS011;6039;52.576;13.348;2023-10-08T11:51:07;0.93;;;0.43;;
11957;SDS011;6039;52.576;13.348;2023-10-08T11:56:12;1.20;;;1.00;;
11957;SDS011;6039;52.576;13.348;2023-10-08T12:01:16;0.80;;;0.80;;
11957;SDS011;6039;52.576;13.348;2023-10-08T12:06:23;1.17;;;0.73;;
11957;SDS011;6039;52.576;13.348;2023-10-08T12:11:29;0.90;;;0.70;;
11957;SDS011;6039;52.576;13.348;2023-10-08T12:16:34;1.10;;;0.80;;
11957;SDS011;6039;52.576;13.348;2023-10-08T12:21:42;0.87;;;0.70;;
11957;SDS011;6039;52.576;13.348;2023-10-08T12:26:48;1.17;;;0.73;;
11957;SDS011;6039;52.576;13.348;2023-10-08T12:31:52;1.97;;;0.80;;
11957;SDS011;6039;52.576;13.348;2023-10-08T12:36:58;1.63;;;1.10;;
11957;SDS011;6039;52.576;13.348;2023-10-08T12:42:02;2.40;;;1.30;;
11957;SDS011;6039;52.576;13.348;2023-10-08T12:47:06;2.40;;;1.93;;
11957;SDS011;6039;52.576;13.348;2023-10-08T12:52:15;1.40;;;0.90;;
11957;SDS011;6039;52.576;13.348;2023-10-08T12:57:20;0.80;;;0.70;;
11957;SDS011;6039;52.576;13.348;2023-10-08T13:02:32;1.43;;;0.80;;
11957;SDS011;6039;52.576;13.348;2023-10-08T13:07:42;1.30;;;0.80;;
11957;SDS011;6039;52.576;13.348;2023-10-08T13:12:46;0.70;;;0.60;;
11957;SDS011;6039;52.576;13.348;2023-10-08T13:17:50;1.40;;;0.77;;
11957;SDS011;6039;52.576;13.348;2023-10-08T13:22:56;1.47;;;1.00;;
11957;SDS011;6039;52.576;13.348;2023-10-08T13:28:00;1.77;;;0.80;;
11957;SDS011;6039;52.576;13.348;2023-10-08T13:33:05;0.80;;;0.50;;
11957;SDS011;6039;52.576;13.348;2023-10-08T13:38:12;2.07;;;1.50;;
11957;SDS011;6039;52.576;13.348;2023-10-08T13:43:17;1.30;;;1.10;;
11957;SDS011;6039;52.576;13.348;2023-10-08T13:48:23;1.73;;;0.90;;
11957;SDS011;6039;52.576;13.348;2023-10-08T13:53:30;1.13;;;0.70;;
11957;SDS011;6039;52.576;13.348;2023-10-08T13:58:37;1.20;;;0.80;;
11957;SDS011;6039;52.576;13.348;2023-10-08T14:03:46;2.00;;;0.83;;
11957;SDS011;6039;52.576;13.348;2023-10-08T14:08:56;1.97;;;0.80;;
11957;SDS011;6039;52.576;13.348;2023-10-08T14:14:00;2.30;;;1.00;;
11957;SDS011;6039;52.576;13.348;2023-10-08T14:19:08;1.03;;;0.60;;
11957;SDS011;6039;52.576;13.348;2023-10-08T14:24:15;0.93;;;0.77;;
11957;SDS011;6039;52.576;13.348;2023-10-08T14:29:20;1.47;;;0.90;;
11957;SDS011;6039;52.576;13.348;2023-10-08T14:34:27;1.10;;;0.63;;
11957;SDS011;6039;52.576;13.348;2023-10-08T14:39:48;1.37;;;0.90;;
11957;SDS011;6039;52.576;13.348;2023-10-08T14:45:05;1.00;;;0.80;;
11957;SDS011;6039;52.576;13.348;2023-10-08T14:50:11;1.17;;;0.80;;
11957;SDS011;6039;52.576;13.348;2023-10-08T14:55:21;2.90;;;1.37;;
11957;SDS011;6039;52.576;13.348;2023-10-08T15:00:25;1.20;;;0.97;;
11957;SDS011;6039;52.576;13.348;2023-10-08T15:05:31;1.43;;;0.80;;
11957;SDS011;6039;52.576;13.348;2023-10-08T15:10:39;0.90;;;0.80;;
11957;SDS011;6039;52.576;13.348;2023-10-08T15:15:43;2.83;;;1.30;;
11957;SDS011;6039;52.576;13.348;2023-10-08T15:20:47;1.10;;;0.90;;
11957;SDS011;6039;52.576;13.348;2023-10-08T15:25:55;1.33;;;1.00;;
11957;SDS011;6039;52.576;13.348;2023-10-08T15:30:59;3.10;;;1.00;;
11957;SDS011;6039;52.576;13.348;2023-10-08T15:36:03;2.43;;;1.40;;
11957;SDS011;6039;52.576;13.348;2023-10-08T15:41:09;1.80;;;1.00;;
11957;SDS011;6039;52.576;13.348;2023-10-08T15:46:14;1.87;;;1.20;;
11957;SDS011;6039;52.576;13.348;2023-10-08T15:51:17;2.43;;;1.00;;
11957;SDS011;6039;52.576;13.348;2023-10-08T15:56:24;1.97;;;1.50;;
11957;SDS011;6039;52.576;13.348;2023-10-08T16:01:28;2.63;;;1.40;;
11957;SDS011;6039;52.576;13.348;2023-10-08T16:06:32;3.73;;;1.83;;
11957;SDS011;6039;52.576;13.348;2023-10-08T16:11:39;1.73;;;1.33;;
11957;SDS011;6039;52.576;13.348;2023-10-08T16:16:43;3.03;;;1.53;;
11957;SDS011;6039;52.576;13.348;2023-10-08T16:21:47;3.40;;;1.57;;
11957;SDS011;6039;52.576;13.348;2023-10-08T16:26:54;4.80;;;1.90;;
11957;SDS011;6039;52.576;13.348;2023-10-08T16:31:58;4.67;;;2.50;;
11957;SDS011;6039;52.576;13.348;2023-10-08T16:37:02;7.27;;;3.73;;
11957;SDS011;6039;52.576;13.348;2023-10-08T16:42:08;4.53;;;2.40;;
11957;SDS011;6039;52.576;13.348;2023-10-08T16:47:12;6.23;;;2.70;;
11957;SDS011;6039;52.576;13.348;2023-10-08T16:52:17;4.37;;;2.37;;
11957;SDS011;6039;52.576;13.348;2023-10-08T16:57:25;4.45;;;2.45;;
11957;SDS011;6039;52.576;13.348;2023-10-08T17:02:29;4.47;;;2.50;;
11957;SDS011;6039;52.576;13.348;2023-10-08T17:07:33;5.13;;;2.50;;
11957;SDS011;6039;52.576;13.348;2023-10-08T17:12:39;5.47;;;2.80;;
11957;SDS011;6039;52.576;13.348;2023-10-08T17:17:43;5.90;;;2.70;;
11957;SDS011;6039;52.576;13.348;2023-10-08T17:22:47;5.57;;;3.40;;
11957;SDS011;6039;52.576;13.348;2023-10-08T17:27:54;5.33;;;2.80;;
11957;SDS011;6039;52.576;13.348;2023-10-08T17:32:58;4.47;;;2.50;;
11957;SDS011;6039;52.576;13.348;2023-10-08T17:38:02;2.80;;;2.20;;
11957;SDS011;6039;52.576;13.348;2023-10-08T17:43:14;4.43;;;2.57;;
11957;SDS011;6039;52.576;13.348;2023-10-08T17:48:20;5.33;;;3.00;;
11957;SDS011;6039;52.576;13.348;2023-10-08T17:53:26;4.60;;;2.37;;
11957;SDS011;6039;52.576;13.348;2023-10-08T17:58:33;6.63;;;3.30;;
11957;SDS011;6039;52.576;13.348;2023-10-08T18:03:38;6.37;;;3.30;;
11957;SDS011;6039;52.576;13.348;2023-10-08T18:08:44;4.87;;;3.40;;
11957;SDS011;6039;52.576;13.348;2023-10-08T18:13:52;5.33;;;3.53;;
11957;SDS011;6039;52.576;13.348;2023-10-08T18:18:56;5.30;;;3.23;;
11957;SDS011;6039;52.576;13.348;2023-10-08T18:24:00;5.07;;;3.60;;
11957;SDS011;6039;52.576;13.348;2023-10-08T18:29:07;6.20;;;4.10;;
11957;SDS011;6039;52.576;13.348;2023-10-08T18:34:14;9.97;;;4.87;;
11957;SDS011;6039;52.576;13.348;2023-10-08T18:39:18;6.77;;;4.23;;
11957;SDS011;6039;52.576;13.348;2023-10-08T18:44:24;6.77;;;4.00;;
11957;SDS011;6039;52.576;13.348;2023-10-08T18:49:28;6.37;;;4.17;;
11957;SDS011;6039;52.576;13.348;2023-10-08T18:54:32;6.00;;;4.30;;
11957;SDS011;6039;52.576;13.348;2023-10-08T18:59:40;6.37;;;3.67;;
11957;SDS011;6039;52.576;13.348;2023-10-08T19:04:44;7.27;;;4.23;;
11957;SDS011;6039;52.576;13.348;2023-10-08T19:09:50;9.43;;;5.23;;
11957;SDS011;6039;52.576;13.348;2023-10-08T19:14:57;6.40;;;4.00;;
11957;SDS011;6039;52.576;13.348;2023-10-08T19:20:02;7.43;;;4.10;;
11957;SDS011;6039;52.576;13.348;2023-10-08T19:25:08;7.43;;;4.27;;
11957;SDS011;6039;52.576;13.348;2023-10-08T19:30:16;5.60;;;3.90;;
11957;SDS011;6039;52.576;13.348;2023-10-08T19:35:20;6.47;;;3.83;;
11957;SDS011;6039;52.576;13.348;2023-10-08T19:40:24;6.63;;;4.23;;
11957;SDS011;6039;52.576;13.348;2023-10-08T19:45:35;5.00;;;3.20;;
11957;SDS011;6039;52.576;13.348;2023-10-08T19:50:40;6.37;;;3.23;;
11957;SDS011;6039;52.576;13.348;2023-10-08T19:55:46;7.03;;;4.07;;
11957;SDS011;6039;52.576;13.348;2023-10-08T20:00:54;6.63;;;3.60;;
11957;SDS011;6039;52.576;13.348;2023-10-08T20:05:59;3.27;;;2.50;;
11957;SDS011;6039;52.576;13.348;2023-10-08T20:11:03;4.03;;;2.67;;
11957;SDS011;6039;52.576;13.348;2023-10-08T20:16:10;4.27;;;2.83;;
11957;SDS011;6039;52.576;13.348;2023-10-08T20:21:14;3.90;;;2.83;;
11957;SDS011;6039;52.576;13.348;2023-10-08T20:26:18;3.80;;;2.60;;
11957;SDS011;6039;52.576;13.348;2023-10-08T20:31:26;4.40;;;2.70;;
11957;SDS011;6039;52.576;13.348;2023-10-08T20:36:30;4.00;;;2.90;;
11957;SDS011;6039;52.576;13.348;2023-10-08T20:41:34;5.23;;;3.10;;
11957;SDS011;6039;52.576;13.348;2023-10-08T20:46:40;5.37;;;2.93;;
11957;SDS011;6039;52.576;13.348;2023-10-08T20:51:44;7.43;;;3.23;;
11957;SDS011;6039;52.576;13.348;2023-10-08T20:56:48;4.20;;;3.03;;
11957;SDS011;6039;52.576;13.348;2023-10-08T21:01:55;4.83;;;3.07;;
11957;SDS011;6039;52.576;13.348;2023-10-08T21:06:59;4.13;;;2.80;;
11957;SDS011;6039;52.576;13.348;2023-10-08T21:12:04;4.43;;;2.97;;
11957;SDS011;6039;52.576;13.348;2023-10-08T21:17:11;4.87;;;3.13;;
11957;SDS011;6039;52.576;13.348;2023-10-08T21:22:15;5.40;;;2.80;;
11957;SDS011;6039;52.576;13.348;2023-10-08T21:27:19;5.00;;;3.00;;
11957;SDS011;6039;52.576;13.348;2023-10-08T21:32:26;5.13;;;2.90;;
11957;SDS011;6039;52.576;13.348;2023-10-08T21:37:30;6.13;;;2.97;;
11957;SDS011;6039;52.576;13.348;2023-10-08T21:42:35;4.50;;;2.70;;
11957;SDS011;6039;52.576;13.348;2023-10-08T21:47:41;3.57;;;2.40;;
11957;SDS011;6039;52.576;13.348;2023-10-08T21:52:46;3.53;;;2.43;;
11957;SDS011;6039;52.576;13.348;2023-10-08T21:57:52;4.40;;;2.40;;
11957;SDS011;6039;52.576;13.348;2023-10-08T22:02:59;2.57;;;2.00;;
11957;SDS011;6039;52.576;13.348;2023-10-08T22:08:07;2.73;;;1.80;;
11957;SDS011;6039;52.576;13.348;2023-10-08T22:13:12;3.83;;;1.90;;
11957;SDS011;6039;52.576;13.348;2023-10-08T22:18:20;2.97;;;2.07;;
11957;SDS011;6039;52.576;13.348;2023-10-08T22:23:32;4.37;;;2.37;;
11957;SDS011;6039;52.576;13.348;2023-10-08T22:28:38;4.30;;;2.80;;
11957;SDS011;6039;52.576;13.348;2023-10-08T22:33:45;4.57;;;2.80;;
11957;SDS011;6039;52.576;13.348;2023-10-08T22:38:49;3.67;;;2.23;;
11957;SDS011;6039;52.576;13.348;2023-10-08T22:43:55;3.53;;;2.13;;
11957;SDS011;6039;52.576;13.348;2023-10-08T22:49:03;3.13;;;2.03;;
11957;SDS011;6039;52.576;13.348;2023-10-08T22:54:16;2.80;;;1.87;;
11957;SDS011;6039;52.576;13.348;2023-10-08T22:59:21;2.83;;;1.80;;
11957;SDS011;6039;52.576;13.348;2023-10-08T23:04:28;2.50;;;1.67;;
11957;SDS011;6039;52.576;13.348;2023-10-08T23:09:34;2.17;;;1.40;;
11957;SDS011;6039;52.576;13.348;2023-10-08T23:14:39;2.87;;;1.70;;
11957;SDS011;6039;52.576;13.348;2023-10-08T23:19:45;1.80;;;1.50;;
11957;SDS011;6039;52.576;13.348;2023-10-08T23:24:51;2.07;;;1.50;;
11957;SDS011;6039;52.576;13.348;2023-10-08T23:29:55;5.63;;;1.70;;
11957;SDS011;6039;52.576;13.348;2023-10-08T23:35:03;3.23;;;2.10;;
11957;SDS011;6039;52.576;13.348;2023-10-08T23:40:16;2.13;;;1.53;;
11957;SDS011;6039;52.576;13.348;2023-10-08T23:45:26;3.07;;;1.93;;
11957;SDS011;6039;52.576;13.348;2023-10-08T23:50:32;2.97;;;1.90;;
11957;SDS011;6039;52.576;13.348;2023-10-08T23:55:42;2.20;;;1.80;;
